Time;durP1;ratioP1;P1;durP2;ratioP2;P2;SDS_P1;SDS_P2;PMS_P1;PMS_P2;Temp;Humidity;BMP_temperature;BMP_pressure;BME280_temperature;BME280_humidity;BME280_pressure;Samples;Min_cycle;Max_cycle;Signal;HPM_P1;HPM_P2
2021/08/29 00:02:06;;;;;;;;;1.00;0.00;;;;;16.06;66.24;101850.06;5060983;28;45386;-78
2021/08/29 00:04:32;;;;;;;;;0.00;0.00;;;;;16.13;66.11;101848.31;5060856;28;45326;-78
2021/08/29 00:06:57;;;;;;;;;0.00;0.00;;;;;16.29;66.01;101877.28;5060623;28;45543;-78
2021/08/29 00:09:22;;;;;;;;;0.00;0.00;;;;;16.21;65.85;101843.09;5075329;28;45305;-78
2021/08/29 00:11:48;;;;;;;;;1.00;0.00;;;;;16.33;65.91;101865.91;5060776;28;45334;-77
2021/08/29 00:14:13;;;;;;;;;0.00;0.00;;;;;16.11;65.94;101830.81;5060481;28;45543;-78
2021/08/29 00:16:38;;;;;;;;;0.00;0.00;;;;;16.23;66.22;101866.75;5060443;28;45298;-77
2021/08/29 00:19:04;;;;;;;;;0.00;0.00;;;;;16.14;66.63;101867.59;5061436;28;45382;-78
2021/08/29 00:21:29;;;;;;;;;0.00;0.00;;;;;15.86;66.63;101828.94;5076127;28;45338;-77
2021/08/29 00:23:55;;;;;;;;;0.00;0.00;;;;;15.93;66.94;101846.47;5082901;27;45947;-78
2021/08/29 00:26:20;;;;;;;;;0.00;0.00;;;;;16.02;67.14;101871.06;5116864;27;48210;-79
2021/08/29 00:28:45;;;;;;;;;0.00;0.00;;;;;15.88;66.88;101835.09;5071264;27;45294;-78
2021/08/29 00:31:11;;;;;;;;;0.00;0.00;;;;;16.01;67.29;101854.41;5058796;28;45728;-78
2021/08/29 00:33:36;;;;;;;;;0.00;0.00;;;;;16.04;67.12;101840.41;5060235;28;45288;-79
2021/08/29 00:36:02;;;;;;;;;0.00;0.00;;;;;16.06;66.65;101846.56;5060286;28;45807;-79
2021/08/29 00:38:27;;;;;;;;;0.00;0.00;;;;;16.10;66.72;101837.81;5061055;28;45240;-79
2021/08/29 00:40:53;;;;;;;;;0.00;0.00;;;;;16.18;67.00;101849.22;5060540;28;45222;-78
2021/08/29 00:43:20;;;;;;;;;0.00;0.00;;;;;16.26;66.88;101866.78;5075654;28;45967;-78
2021/08/29 00:45:46;;;;;;;;;0.75;0.00;;;;;16.06;66.34;101821.19;5058602;28;47248;-78
2021/08/29 00:48:13;;;;;;;;;0.00;0.00;;;;;16.33;67.02;101864.13;5062198;28;45532;-78
2021/08/29 00:50:45;;;;;;;;;0.00;0.00;;;;;16.45;66.66;101857.19;5060094;28;45519;-79
2021/08/29 00:53:14;;;;;;;;;0.00;0.00;;;;;16.30;66.85;101856.25;5058305;28;45370;-79
2021/08/29 00:55:40;;;;;;;;;0.00;0.00;;;;;16.23;66.40;101837.84;5092119;27;47556;-79
2021/08/29 00:58:05;;;;;;;;;1.00;0.00;;;;;16.00;66.59;101815.91;5091819;27;45423;-79
2021/08/29 01:00:33;;;;;;;;;1.75;0.75;;;;;15.93;66.87;101814.97;5075558;28;45320;-79
2021/08/29 01:02:59;;;;;;;;;0.00;0.00;;;;;15.98;67.13;101835.16;5058483;28;45299;-79
2021/08/29 01:05:53;;;;;;;;;0.00;0.00;;;;;16.16;67.28;101855.34;5059788;28;46389;-79
2021/08/29 01:08:19;;;;;;;;;0.00;0.00;;;;;16.08;66.96;101848.31;5058195;28;45287;-79
2021/08/29 01:10:53;;;;;;;;;0.00;0.00;;;;;15.75;67.13;101799.16;5058665;28;45258;-79
2021/08/29 01:13:26;;;;;;;;;0.00;0.00;;;;;15.91;67.34;101834.22;5075394;28;45431;-78
2021/08/29 01:15:56;;;;;;;;;0.00;0.00;;;;;15.94;67.10;101829.88;5059493;28;45531;-79
2021/08/29 01:18:24;;;;;;;;;0.00;0.00;;;;;15.93;67.93;101840.34;5060422;28;45370;-79
2021/08/29 01:21:02;;;;;;;;;0.00;0.00;;;;;15.99;67.77;101857.91;5075082;28;45364;-79
2021/08/29 01:23:30;;;;;;;;;0.00;0.00;;;;;15.87;67.64;101841.22;5074487;27;45307;-78
2021/08/29 01:26:01;;;;;;;;;0.00;0.00;;;;;15.90;68.08;101842.97;5099182;27;46263;-78
2021/08/29 01:28:43;;;;;;;;;0.00;0.00;;;;;15.98;68.09;101856.16;5083744;27;45260;-78
2021/08/29 01:31:09;;;;;;;;;1.00;0.00;;;;;15.75;68.21;101826.28;5081952;28;45326;-79
2021/08/29 01:33:34;;;;;;;;;0.00;0.00;;;;;15.79;68.21;101840.28;5081776;28;45677;-80
2021/08/29 01:36:00;;;;;;;;;0.25;0.00;;;;;15.70;68.51;101833.25;5082071;27;48517;-80
2021/08/29 01:38:25;;;;;;;;;0.00;0.00;;;;;15.39;68.49;101783.22;5065406;28;45611;-78
2021/08/29 01:40:50;;;;;;;;;0.00;0.00;;;;;15.83;68.44;101865.69;5063455;28;45253;-79
2021/08/29 01:43:16;;;;;;;;;0.00;0.00;;;;;15.71;69.02;101832.38;5063151;28;45269;-78
2021/08/29 01:45:43;;;;;;;;;0.00;0.00;;;;;15.53;68.93;101823.53;5062943;28;45508;-79
2021/08/29 01:48:08;;;;;;;;;1.00;0.00;;;;;15.49;69.56;101834.03;5063953;28;45162;-79
2021/08/29 01:50:34;;;;;;;;;0.00;0.00;;;;;15.44;70.02;101834.00;5063089;28;45247;-78
2021/08/29 01:52:59;;;;;;;;;0.00;0.00;;;;;15.45;69.90;101844.50;5061244;28;45533;-79
2021/08/29 01:55:24;;;;;;;;;0.00;0.00;;;;;15.44;69.76;101832.22;5062982;28;45371;-78
2021/08/29 01:57:50;;;;;;;;;0.00;0.00;;;;;15.60;69.50;101861.19;5063881;27;45268;-79
2021/08/29 02:00:16;;;;;;;;;0.00;0.00;;;;;15.42;69.83;101828.75;5062880;28;45207;-79
2021/08/29 02:02:42;;;;;;;;;0.00;0.00;;;;;15.33;69.73;101803.34;5062863;28;45378;-79
2021/08/29 02:05:09;;;;;;;;;0.00;0.00;;;;;15.56;69.78;101854.19;5062704;28;45536;-78
2021/08/29 02:07:42;;;;;;;;;0.00;0.00;;;;;15.43;69.70;101835.75;5074850;27;45335;-79
2021/08/29 02:10:11;;;;;;;;;0.00;0.00;;;;;15.44;69.71;101828.75;5083141;28;45339;-79
2021/08/29 02:12:47;;;;;;;;;0.00;0.00;;;;;15.60;69.73;101858.59;5082900;27;45523;-78
2021/08/29 02:15:17;;;;;;;;;0.00;0.00;;;;;15.74;69.48;101871.75;5081181;28;47283;-78
2021/08/29 02:17:43;;;;;;;;;0.00;0.00;;;;;15.77;69.70;101869.16;5080504;27;45484;-78
2021/08/29 02:20:15;;;;;;;;;0.00;0.00;;;;;15.61;69.11;101841.94;5098462;27;45426;-78
2021/08/29 02:22:41;;;;;;;;;0.00;0.00;;;;;15.73;69.07;101859.50;5084326;27;45630;-78
2021/08/29 02:25:08;;;;;;;;;0.00;0.00;;;;;15.76;69.35;101861.28;5103146;27;45464;-78
2021/08/29 02:27:36;;;;;;;;;0.00;0.00;;;;;15.79;69.42;101871.78;5084908;27;46179;-79
2021/08/29 02:30:03;;;;;;;;;0.00;0.00;;;;;15.74;69.33;101869.13;5082671;28;45255;-78
2021/08/29 02:32:29;;;;;;;;;0.00;0.00;;;;;15.71;69.36;101867.38;5082335;27;45229;-79
2021/08/29 02:34:55;;;;;;;;;0.00;0.00;;;;;15.61;69.45;101862.06;5081228;27;47565;-79
2021/08/29 02:37:21;;;;;;;;;1.00;0.00;;;;;15.58;69.75;101863.81;5095391;27;45314;-79
2021/08/29 02:39:51;;;;;;;;;0.00;0.00;;;;;15.64;70.12;101872.56;5082770;27;45329;-79
2021/08/29 02:42:17;;;;;;;;;0.00;0.00;;;;;15.52;69.81;101853.28;5081198;28;45940;-78
2021/08/29 02:44:44;;;;;;;;;0.00;0.00;;;;;15.40;69.96;101837.44;5082251;27;45400;-79
2021/08/29 02:47:11;;;;;;;;;0.00;0.00;;;;;15.31;70.19;101847.03;5068816;27;45409;-79
2021/08/29 02:49:37;;;;;;;;;0.00;0.00;;;;;15.20;70.85;101822.47;5062373;28;45374;-79
2021/08/29 02:52:03;;;;;;;;;0.00;0.00;;;;;15.23;70.58;101829.47;5077368;28;46030;-79
2021/08/29 02:54:29;;;;;;;;;0.00;0.00;;;;;15.14;70.67;101822.44;5060366;28;47703;-79
2021/08/29 02:56:57;;;;;;;;;0.00;0.00;;;;;15.44;70.26;101855.84;5061615;27;45436;-79
2021/08/29 02:59:22;;;;;;;;;0.00;0.00;;;;;15.44;70.27;101855.00;5062004;28;45252;-79
2021/08/29 03:01:48;;;;;;;;;0.00;0.00;;;;;15.40;70.55;101843.59;5077398;28;45971;-79
2021/08/29 03:04:13;;;;;;;;;0.00;0.00;;;;;15.33;70.42;101828.69;5061974;28;45326;-79
2021/08/29 03:06:39;;;;;;;;;0.50;0.00;;;;;15.16;70.37;101818.94;5062918;28;45334;-79
2021/08/29 03:09:05;;;;;;;;;0.00;0.00;;;;;15.38;70.86;101861.09;5077441;28;45287;-79
2021/08/29 03:11:32;;;;;;;;;0.00;0.00;;;;;15.22;70.57;101827.75;5061655;28;45553;-78
2021/08/29 03:13:58;;;;;;;;;1.50;0.50;;;;;15.09;70.66;101809.28;5076744;28;48098;-79
2021/08/29 03:16:23;;;;;;;;;0.00;0.00;;;;;15.28;70.71;101840.91;5062020;27;45279;-79
2021/08/29 03:18:49;;;;;;;;;0.00;0.00;;;;;15.32;70.54;101846.16;5077280;28;45257;-79
2021/08/29 03:21:15;;;;;;;;;0.00;0.00;;;;;15.33;70.80;101841.78;5061712;28;45471;-79
2021/08/29 03:23:40;;;;;;;;;0.00;0.00;;;;;15.40;70.50;101854.09;5096837;27;47097;-78
2021/08/29 03:26:06;;;;;;;;;1.00;0.00;;;;;15.28;70.69;101827.78;5086083;27;46279;-78
2021/08/29 03:28:31;;;;;;;;;0.00;0.00;;;;;15.28;70.40;101820.78;5061178;28;45235;-79
2021/08/29 03:30:57;;;;;;;;;0.00;0.00;;;;;15.19;70.45;101807.59;5061411;28;45166;-79
2021/08/29 03:33:24;;;;;;;;;0.00;0.00;;;;;15.14;70.15;101788.34;5059770;28;47816;-79
2021/08/29 03:35:54;;;;;;;;;1.00;0.00;;;;;15.41;70.33;101839.22;5062295;28;45169;-79
2021/08/29 03:38:21;;;;;;;;;0.75;0.00;;;;;15.35;70.41;101826.94;5061321;28;45466;-79
2021/08/29 03:40:50;;;;;;;;;0.00;0.00;;;;;15.24;70.51;101824.25;5059967;28;45474;-78
2021/08/29 03:43:16;;;;;;;;;0.00;0.00;;;;;15.41;70.36;101841.84;5061227;28;45462;-79
2021/08/29 03:45:42;;;;;;;;;0.00;0.00;;;;;15.27;70.61;101815.50;5075492;28;46133;-78
2021/08/29 03:48:09;;;;;;;;;0.00;0.00;;;;;15.37;70.46;101827.81;5076614;27;45276;-78
2021/08/29 03:50:36;;;;;;;;;0.00;0.00;;;;;15.30;70.54;101824.28;5060461;28;45277;-79
2021/08/29 03:53:02;;;;;;;;;0.00;0.00;;;;;15.11;70.80;101794.44;5060549;28;45532;-79
2021/08/29 03:55:28;;;;;;;;;0.00;0.00;;;;;15.22;70.42;101819.88;5075941;28;45230;-79
2021/08/29 03:57:55;;;;;;;;;0.00;0.00;;;;;15.27;70.89;101831.25;5059450;28;45356;-79
2021/08/29 04:00:21;;;;;;;;;1.00;0.00;;;;;15.03;70.70;101791.78;5076556;28;45604;-78
2021/08/29 04:02:46;;;;;;;;;1.75;0.00;;;;;15.19;70.78;101825.94;5060811;28;45856;-79
2021/08/29 04:05:12;;;;;;;;;0.00;0.00;;;;;14.95;70.87;101789.09;5061715;27;45346;-79
2021/08/29 04:07:38;;;;;;;;;0.00;0.00;;;;;15.20;70.93;101825.09;5060796;28;45672;-78
2021/08/29 04:10:04;;;;;;;;;0.00;0.00;;;;;15.20;70.91;101815.47;5076437;28;45468;-78
2021/08/29 04:12:32;;;;;;;;;0.00;0.00;;;;;15.22;70.89;101840.84;5060482;28;46659;-79
2021/08/29 04:14:59;;;;;;;;;0.00;0.00;;;;;15.09;71.13;101835.50;5076076;27;45254;-79
2021/08/29 04:17:24;;;;;;;;;0.00;0.00;;;;;15.01;71.65;101835.44;5060924;28;45284;-79
2021/08/29 04:19:51;;;;;;;;;0.00;0.00;;;;;14.92;71.75;101814.41;5060830;28;45548;-79
2021/08/29 04:22:17;;;;;;;;;0.00;0.00;;;;;14.95;71.07;101830.19;5075888;28;47319;-79
2021/08/29 04:24:42;;;;;;;;;0.00;0.00;;;;;14.94;71.51;101823.16;5091115;27;45326;-79
2021/08/29 04:27:08;;;;;;;;;0.00;0.00;;;;;14.84;71.48;101800.34;5060492;28;45322;-79
2021/08/29 04:29:34;;;;;;;;;0.00;0.00;;;;;15.01;71.73;101843.31;5076040;28;45491;-79
2021/08/29 04:32:03;;;;;;;;;0.00;0.00;;;;;14.84;71.54;101822.22;5075783;28;47957;-79
2021/08/29 04:34:28;;;;;;;;;0.00;0.00;;;;;14.90;71.92;101830.13;5061482;28;45209;-79
2021/08/29 04:36:54;;;;;;;;;0.00;0.00;;;;;14.76;72.10;101829.97;5075915;28;45291;-79
2021/08/29 04:39:19;;;;;;;;;0.00;0.00;;;;;14.75;71.72;101809.00;5060671;28;45283;-79
2021/08/29 04:41:44;;;;;;;;;1.50;0.00;;;;;14.94;71.81;101845.03;5059096;28;47333;-79
2021/08/29 04:44:11;;;;;;;;;0.00;0.00;;;;;14.81;71.90;101815.22;5058968;28;45932;-79
2021/08/29 04:46:37;;;;;;;;;0.00;0.00;;;;;14.80;72.03;101820.44;5060064;27;45352;-80
2021/08/29 04:49:03;;;;;;;;;0.00;0.00;;;;;14.86;71.83;101819.59;5058769;28;45482;-77
2021/08/29 04:51:29;;;;;;;;;0.00;0.00;;;;;14.78;71.70;101807.31;5075568;28;46861;-77
2021/08/29 04:53:55;;;;;;;;;0.00;0.00;;;;;14.93;71.83;101843.28;5058605;28;45353;-77
2021/08/29 04:56:20;;;;;;;;;0.00;0.00;;;;;14.88;72.22;101846.72;5076489;27;45273;-77
2021/08/29 04:58:46;;;;;;;;;0.00;0.00;;;;;14.81;72.30;101833.56;5060250;28;45457;-78
2021/08/29 05:01:11;;;;;;;;;0.00;0.00;;;;;14.87;72.16;101853.69;5057443;28;48527;-78
2021/08/29 05:03:37;;;;;;;;;0.00;0.00;;;;;14.92;72.20;101838.88;5075765;28;45304;-78
2021/08/29 05:06:02;;;;;;;;;0.00;0.00;;;;;14.94;71.93;101831.91;5059695;27;45338;-77
2021/08/29 05:08:27;;;;;;;;;1.00;1.00;;;;;14.88;72.01;101812.66;5059894;28;45425;-77
2021/08/29 05:10:53;;;;;;;;;0.75;0.75;;;;;15.05;71.60;101832.00;5075296;28;47036;-77
2021/08/29 05:13:18;;;;;;;;;0.00;0.00;;;;;15.02;71.63;101823.22;5075464;28;46190;-77
2021/08/29 05:15:44;;;;;;;;;0.00;0.00;;;;;14.87;71.01;101784.66;5060787;28;45305;-78
2021/08/29 05:18:09;;;;;;;;;0.00;0.00;;;;;15.18;71.16;101837.31;5060150;28;45566;-77
2021/08/29 05:20:34;;;;;;;;;0.00;0.00;;;;;15.20;71.33;101849.56;5058412;28;48503;-78
2021/08/29 05:23:00;;;;;;;;;0.00;0.00;;;;;15.08;71.25;101836.38;5084109;27;45377;-78
2021/08/29 05:25:25;;;;;;;;;0.00;0.00;;;;;15.07;71.69;101859.09;5072364;27;45482;-78
2021/08/29 05:27:51;;;;;;;;;0.00;0.00;;;;;14.98;71.25;101830.19;5059717;28;45243;-78
2021/08/29 05:30:16;;;;;;;;;0.00;0.00;;;;;15.14;71.63;101846.94;5058181;28;48435;-78
2021/08/29 05:32:42;;;;;;;;;0.00;0.00;;;;;15.24;71.34;101857.47;5057973;28;45787;-78
2021/08/29 05:35:07;;;;;;;;;0.00;0.00;;;;;15.23;71.35;101845.22;5060768;27;45320;-78
2021/08/29 05:37:33;;;;;;;;;0.00;0.00;;;;;15.02;71.08;101807.50;5059610;28;45412;-78
2021/08/29 05:39:58;;;;;;;;;0.25;0.00;;;;;15.14;71.08;101823.31;5059644;28;46073;-78
2021/08/29 05:42:23;;;;;;;;;0.00;0.00;;;;;15.20;71.12;101844.31;5059233;28;45356;-78
2021/08/29 05:44:49;;;;;;;;;0.75;0.75;;;;;15.17;71.17;101844.31;5060542;28;45556;-78
2021/08/29 05:47:14;;;;;;;;;0.00;0.00;;;;;14.84;71.23;101798.63;5059681;28;45309;-78
2021/08/29 05:49:39;;;;;;;;;0.00;0.00;;;;;15.12;71.29;101837.25;5058116;28;48203;-78
2021/08/29 05:52:05;;;;;;;;;0.00;0.00;;;;;15.02;71.29;101820.59;5057748;28;45814;-78
2021/08/29 05:54:31;;;;;;;;;0.00;0.00;;;;;15.21;71.35;101874.06;5075890;27;45387;-78
2021/08/29 05:56:56;;;;;;;;;0.00;0.00;;;;;15.10;71.44;101837.25;5074851;28;45226;-77
2021/08/29 05:59:21;;;;;;;;;0.00;0.00;;;;;15.07;71.02;101816.28;5074805;28;47945;-78
2021/08/29 06:01:47;;;;;;;;;0.00;0.00;;;;;15.07;71.06;101803.16;5059633;28;45293;-78
2021/08/29 06:04:12;;;;;;;;;0.00;0.00;;;;;15.28;71.22;101826.03;5059451;27;45751;-78
2021/08/29 06:06:37;;;;;;;;;0.00;0.00;;;;;15.24;70.61;101813.75;5059825;28;45303;-79
2021/08/29 06:09:04;;;;;;;;;0.00;0.00;;;;;15.48;71.05;101850.63;5075130;28;47087;-79
2021/08/29 06:11:29;;;;;;;;;0.00;0.00;;;;;15.48;70.63;101837.50;5058037;28;45274;-79
2021/08/29 06:13:57;;;;;;;;;0.00;0.00;;;;;15.31;70.49;101815.56;5062073;28;45358;-79
2021/08/29 06:16:24;;;;;;;;;1.00;1.00;;;;;15.45;70.30;101825.25;5078394;28;45394;-79
2021/08/29 06:18:50;;;;;;;;;0.00;0.00;;;;;15.51;70.31;101824.41;5060931;28;47207;-79
2021/08/29 06:21:15;;;;;;;;;1.00;0.00;;;;;15.65;69.83;101835.84;5061054;28;45968;-79
2021/08/29 06:23:41;;;;;;;;;0.00;0.00;;;;;15.65;69.96;101835.00;5072240;27;45410;-79
2021/08/29 06:26:06;;;;;;;;;0.00;0.00;;;;;15.58;69.74;101818.31;5062689;28;45292;-79
2021/08/29 06:28:31;;;;;;;;;0.00;0.00;;;;;15.80;69.59;101847.28;5060741;28;48025;-79
2021/08/29 06:30:57;;;;;;;;;0.00;0.00;;;;;15.66;69.90;101836.72;5061091;28;45326;-79
2021/08/29 06:33:22;;;;;;;;;0.00;0.00;;;;;15.71;69.79;101850.75;5062437;28;45299;-79
2021/08/29 06:35:47;;;;;;;;;0.00;0.00;;;;;15.77;69.60;101837.66;5081195;28;45640;-79
2021/08/29 06:38:13;;;;;;;;;0.00;0.00;;;;;16.05;68.97;101863.19;5082537;28;46134;-78
2021/08/29 06:40:38;;;;;;;;;0.00;0.00;;;;;16.05;68.85;101860.56;5083046;27;45312;-78
2021/08/29 06:43:04;;;;;;;;;0.00;0.00;;;;;15.98;68.78;101843.03;5080180;27;45257;-78
2021/08/29 06:45:29;;;;;;;;;0.00;0.00;;;;;16.07;68.77;101853.56;5061949;28;45212;-78
2021/08/29 06:47:54;;;;;;;;;0.00;0.00;;;;;16.21;68.77;101866.75;5062215;28;46354;-78
2021/08/29 06:50:20;;;;;;;;;0.00;0.00;;;;;15.97;68.56;101818.50;5062099;28;45280;-78
2021/08/29 06:52:45;;;;;;;;;0.00;0.00;;;;;16.29;68.39;101858.91;5060586;28;45252;-79
2021/08/29 06:55:10;;;;;;;;;0.00;0.00;;;;;16.44;68.13;101879.94;5080268;28;45277;-78
2021/08/29 06:57:36;;;;;;;;;0.00;0.00;;;;;16.37;68.31;101859.78;5082468;27;45411;-79
2021/08/29 07:00:02;;;;;;;;;0.25;0.00;;;;;16.42;68.02;101867.69;5080598;28;45370;-78
2021/08/29 07:02:29;;;;;;;;;0.00;0.00;;;;;16.44;67.79;101863.28;5097693;27;45368;-78
2021/08/29 07:04:54;;;;;;;;;0.00;0.00;;;;;16.50;67.53;101865.03;5078487;28;45544;-79
2021/08/29 07:07:19;;;;;;;;;0.00;0.00;;;;;16.46;67.51;101853.66;5080177;28;46925;-78
2021/08/29 07:09:45;;;;;;;;;0.00;0.00;;;;;16.52;67.68;101873.81;5082117;28;45446;-78
2021/08/29 07:12:11;;;;;;;;;1.00;0.00;;;;;16.56;67.68;101863.31;5080600;28;45344;-79
2021/08/29 07:14:37;;;;;;;;;0.00;0.00;;;;;16.64;67.30;101872.97;5079436;27;45472;-79
2021/08/29 07:17:03;;;;;;;;;0.00;0.00;;;;;16.53;67.24;101850.16;5098031;27;47503;-79
2021/08/29 07:19:28;;;;;;;;;0.00;0.00;;;;;16.54;66.97;101845.81;5080635;28;45272;-80
2021/08/29 07:21:53;;;;;;;;;0.00;0.00;;;;;16.67;67.01;101876.50;5097395;27;45303;-79
2021/08/29 07:24:19;;;;;;;;;0.00;0.00;;;;;16.60;66.90;101869.44;5083232;27;45480;-79
2021/08/29 07:26:44;;;;;;;;;0.00;0.00;;;;;15.66;66.89;101695.00;5080119;28;45376;-79
2021/08/29 07:29:09;;;;;;;;;0.25;0.00;;;;;16.64;66.63;101837.06;5079886;28;45766;-77
2021/08/29 07:31:35;;;;;;;;;1.00;0.00;;;;;16.86;66.73;101871.22;5099263;27;45285;-76
2021/08/29 07:34:00;;;;;;;;;2.75;1.50;;;;;16.99;66.70;101866.00;5086464;27;45594;-76
2021/08/29 07:36:25;;;;;;;;;0.00;0.00;;;;;16.75;65.76;101802.00;5077020;28;48174;-77
2021/08/29 07:38:51;;;;;;;;;0.00;0.00;;;;;17.15;65.89;101873.00;5070992;28;45281;-77
2021/08/29 07:41:16;;;;;;;;;0.00;0.00;;;;;16.88;65.99;101830.06;5085157;28;45555;-78
2021/08/29 07:43:41;;;;;;;;;0.00;0.00;;;;;16.80;65.50;101816.00;5086501;28;45670;-78
2021/08/29 07:46:07;;;;;;;;;0.00;0.00;;;;;17.12;65.31;101857.22;5114191;27;47405;-80
2021/08/29 07:48:32;;;;;;;;;0.00;0.00;;;;;17.20;64.95;101855.47;5114479;27;45478;-80
2021/08/29 07:50:58;;;;;;;;;0.00;0.00;;;;;17.10;65.28;101844.06;5077606;27;45335;-79
2021/08/29 07:53:23;;;;;;;;;0.00;0.00;;;;;17.27;65.54;101880.00;5082044;27;45437;-80
2021/08/29 07:55:48;;;;;;;;;0.00;0.00;;;;;17.19;65.31;101885.31;5078736;28;47090;-79
2021/08/29 07:58:14;;;;;;;;;0.00;0.00;;;;;17.04;65.32;101851.06;5084171;27;45240;-80
2021/08/29 08:00:39;;;;;;;;;0.00;0.00;;;;;16.85;65.25;101814.28;5104660;27;45342;-81
2021/08/29 08:03:05;;;;;;;;;0.00;0.00;;;;;16.89;65.39;101821.28;5094138;27;45297;-79
2021/08/29 08:05:30;;;;;;;;;0.00;0.00;;;;;16.96;65.17;101851.06;5080699;27;45686;-79
2021/08/29 08:07:55;;;;;;;;;0.00;0.00;;;;;16.61;65.25;101809.88;5078921;28;45450;-78
2021/08/29 08:10:23;;;;;;;;;0.00;0.00;;;;;16.75;65.05;101828.28;5080437;27;45514;-79
2021/08/29 08:12:49;;;;;;;;;0.00;0.00;;;;;16.99;64.75;101871.25;5111909;27;45513;-77
2021/08/29 08:15:14;;;;;;;;;0.25;0.00;;;;;16.96;64.93;101864.22;5112908;27;46890;-78
2021/08/29 08:17:40;;;;;;;;;0.00;0.00;;;;;16.88;65.33;101856.34;5079184;28;45347;-81
2021/08/29 08:20:07;;;;;;;;;0.00;0.00;;;;;16.93;65.20;101867.72;5073811;27;45216;-79
2021/08/29 08:22:33;;;;;;;;;0.00;0.00;;;;;17.11;64.98;101884.41;5070767;27;45507;-79
2021/08/29 08:24:58;;;;;;;;;0.00;0.00;;;;;17.07;65.01;101866.88;5062205;28;47976;-79
2021/08/29 08:27:24;;;;;;;;;0.00;0.00;;;;;16.76;64.87;101804.63;5060744;28;45382;-82
2021/08/29 08:29:49;;;;;;;;;0.00;0.00;;;;;17.08;65.03;101850.22;5061069;27;45319;-79
2021/08/29 08:32:15;;;;;;;;;0.00;0.00;;;;;17.29;64.50;101866.84;5065984;27;45378;-76
2021/08/29 08:34:40;;;;;;;;;0.00;0.00;;;;;17.45;64.30;101881.75;5078612;27;47139;-75
2021/08/29 08:37:05;;;;;;;;;0.00;0.00;;;;;17.42;64.01;101865.97;5060740;28;45425;-76
2021/08/29 08:39:31;;;;;;;;;0.00;0.00;;;;;17.17;64.15;101823.91;5096949;27;45344;-82
2021/08/29 08:41:56;;;;;;;;;0.00;0.00;;;;;16.81;63.71;101752.00;5066782;28;45244;-79
2021/08/29 08:44:22;;;;;;;;;0.00;0.00;;;;;17.61;63.56;101881.69;5085497;27;45331;-77
2021/08/29 08:46:48;;;;;;;;;0.00;0.00;;;;;17.26;63.58;101832.66;5083045;27;45307;-78
2021/08/29 08:49:19;;;;;;;;;0.00;0.00;;;;;17.40;63.48;101854.53;5085633;27;45347;-76
2021/08/29 08:51:46;;;;;;;;;0.00;0.00;;;;;17.54;63.59;101886.13;5079641;27;45374;-80
2021/08/29 08:54:13;;;;;;;;;1.00;0.00;;;;;17.40;63.38;101862.44;5075062;28;45417;-78
2021/08/29 08:56:39;;;;;;;;;0.00;0.00;;;;;17.32;63.01;101838.78;5080417;28;45524;-76
2021/08/29 08:59:06;;;;;;;;;0.00;0.00;;;;;17.50;62.94;101847.53;5080861;27;45259;-78
2021/08/29 09:01:32;;;;;;;;;0.00;0.00;;;;;17.63;63.19;101851.00;5078995;27;45458;-76
2021/08/29 09:03:58;;;;;;;;;0.00;0.00;;;;;17.79;62.78;101861.47;5080173;28;45464;-76
2021/08/29 09:06:24;;;;;;;;;0.00;0.00;;;;;17.91;62.70;101887.75;5079858;27;45378;-74
2021/08/29 09:08:50;;;;;;;;;1.00;1.00;;;;;17.86;62.80;101860.56;5079350;28;45540;-74
2021/08/29 09:11:15;;;;;;;;;1.00;0.00;;;;;17.98;62.47;101867.56;5079308;27;45324;-74
2021/08/29 09:14:00;;;;;;;;;0.00;0.00;;;;;18.13;62.17;101885.06;5080306;28;45424;-79
2021/08/29 09:16:27;;;;;;;;;0.00;0.00;;;;;18.00;62.16;101863.13;5080156;27;45334;-74
2021/08/29 09:18:55;;;;;;;;;0.00;0.00;;;;;18.02;62.29;101852.59;5078754;27;45318;-74
2021/08/29 09:21:30;;;;;;;;;0.00;0.00;;;;;18.19;61.62;101865.72;5094994;27;45824;-73
2021/08/29 09:23:59;;;;;;;;;1.00;0.00;;;;;18.25;61.49;101883.25;5090502;27;48430;-75
2021/08/29 09:26:27;;;;;;;;;0.00;0.00;;;;;18.16;61.37;101860.47;5100143;27;45302;-75
2021/08/29 09:28:57;;;;;;;;;0.00;0.00;;;;;18.14;61.22;101854.31;5083730;27;45180;-75
2021/08/29 09:31:27;;;;;;;;;1.00;0.00;;;;;18.09;61.04;101856.94;5077925;28;45586;-75
2021/08/29 09:34:02;;;;;;;;;0.00;0.00;;;;;18.02;61.00;101853.47;5078805;27;46780;-74
2021/08/29 09:36:35;;;;;;;;;2.00;0.00;;;;;18.20;61.27;101865.72;5090674;27;46074;-74
2021/08/29 09:39:13;;;;;;;;;0.00;0.00;;;;;18.33;60.79;101870.91;5078526;28;45439;-75
2021/08/29 09:41:40;;;;;;;;;0.00;0.00;;;;;18.30;61.27;101858.63;5074515;28;45842;-75
2021/08/29 09:44:14;;;;;;;;;0.00;0.00;;;;;18.42;61.28;101868.22;5076247;28;47513;-76
2021/08/29 09:47:00;;;;;;;;;0.00;0.00;;;;;18.35;60.43;101866.50;5078009;27;45454;-74
2021/08/29 09:49:31;;;;;;;;;0.00;0.00;;;;;18.17;60.72;101851.69;5081994;27;45383;-74
2021/08/29 09:51:59;;;;;;;;;0.00;0.00;;;;;18.04;61.06;101841.16;5081537;28;45365;-75
2021/08/29 09:54:35;;;;;;;;;0.00;0.00;;;;;18.06;61.17;101862.22;5079807;28;47668;-74
2021/08/29 09:57:04;;;;;;;;;0.00;0.00;;;;;17.88;60.93;101848.25;5080758;28;45432;-76
2021/08/29 09:59:50;;;;;;;;;0.00;0.00;;;;;17.84;61.42;101857.06;5083022;27;45548;-76
2021/08/29 10:02:19;;;;;;;;;0.00;0.00;;;;;17.89;61.46;101865.84;5083030;28;45338;-78
2021/08/29 10:04:45;;;;;;;;;0.00;0.00;;;;;17.90;61.81;101869.31;5094908;27;47367;-75
2021/08/29 10:07:15;;;;;;;;;0.00;0.00;;;;;17.92;61.80;101865.78;5070519;28;45284;-75
2021/08/29 10:09:42;;;;;;;;;0.00;0.00;;;;;18.01;62.39;101870.13;5071829;28;45327;-75
2021/08/29 10:12:09;;;;;;;;;0.00;0.00;;;;;17.97;61.55;101844.69;5082638;27;45458;-75
2021/08/29 10:14:37;;;;;;;;;0.00;0.00;;;;;18.20;61.87;101859.56;5081981;28;46391;-75
2021/08/29 10:17:03;;;;;;;;;0.00;0.00;;;;;18.06;61.53;101843.78;5082649;28;45296;-75
2021/08/29 10:19:29;;;;;;;;;1.75;0.75;;;;;18.30;61.89;101856.00;5085055;27;45369;-75
2021/08/29 10:21:57;;;;;;;;;0.00;0.00;;;;;18.38;61.36;101836.63;5082106;27;45356;-76
2021/08/29 10:24:27;;;;;;;;;0.00;0.00;;;;;18.63;61.21;101853.16;5087866;27;45296;-75
2021/08/29 10:26:54;;;;;;;;;0.00;0.00;;;;;18.72;60.83;101836.38;5081960;28;45366;-76
2021/08/29 10:29:27;;;;;;;;;0.00;0.00;;;;;18.93;60.45;101855.53;5080232;28;45340;-74
2021/08/29 10:32:03;;;;;;;;;0.00;0.00;;;;;18.90;60.02;101835.34;5081714;27;45430;-75
2021/08/29 10:34:31;;;;;;;;;0.75;0.00;;;;;18.98;59.80;101851.97;5097671;27;48068;-75
2021/08/29 10:36:57;;;;;;;;;0.00;0.00;;;;;18.95;59.82;101857.28;5081882;27;45460;-75
2021/08/29 10:39:23;;;;;;;;;1.50;0.00;;;;;18.79;59.56;101837.19;5080770;27;45268;-76
2021/08/29 10:41:50;;;;;;;;;2.00;1.00;;;;;18.86;59.49;101831.84;5080398;27;45401;-75
2021/08/29 10:44:15;;;;;;;;;0.00;0.00;;;;;19.09;59.29;101845.75;5081742;28;46944;-77
2021/08/29 10:46:46;;;;;;;;;0.00;0.00;;;;;19.16;58.81;101833.38;5080896;27;45839;-76
2021/08/29 10:49:14;;;;;;;;;0.00;0.00;;;;;19.24;58.75;101852.66;5082683;27;45321;-76
2021/08/29 10:51:41;;;;;;;;;0.00;0.00;;;;;19.07;58.37;101806.19;5080536;28;45533;-76
2021/08/29 10:54:12;;;;;;;;;0.00;0.00;;;;;19.19;58.00;101805.19;5082202;28;45375;-77
2021/08/29 10:56:37;;;;;;;;;0.00;0.00;;;;;19.31;58.51;101813.84;5081686;28;45232;-77
2021/08/29 10:59:09;;;;;;;;;0.00;0.00;;;;;19.36;58.20;101834.03;5114598;27;45390;-75
2021/08/29 11:01:35;;;;;;;;;0.00;0.00;;;;;19.39;57.91;101840.19;5080715;28;45877;-76
2021/08/29 11:04:21;;;;;;;;;0.00;0.00;;;;;19.39;58.12;101835.78;5082129;28;45676;-78
2021/08/29 11:06:55;;;;;;;;;0.00;0.00;;;;;19.42;57.22;101832.22;5082105;28;45169;-75
2021/08/29 11:09:29;;;;;;;;;0.25;0.25;;;;;19.44;57.21;101833.97;5083160;27;45342;-77
2021/08/29 11:11:55;;;;;;;;;0.00;0.00;;;;;19.09;56.96;101779.78;5081901;28;45536;-75
2021/08/29 11:14:40;;;;;;;;;0.00;0.00;;;;;19.30;56.84;101815.66;5080334;28;47253;-78
2021/08/29 11:17:17;;;;;;;;;0.00;0.00;;;;;19.41;56.66;101831.34;5080549;28;45353;-75
2021/08/29 11:19:45;;;;;;;;;0.00;0.00;;;;;19.41;56.08;101818.16;5079793;28;45330;-75
2021/08/29 11:22:13;;;;;;;;;0.00;0.00;;;;;19.43;56.30;101824.28;5079707;27;46160;-76
2021/08/29 11:24:46;;;;;;;;;0.50;0.00;;;;;19.40;56.01;101819.03;5086804;27;45713;-76